Time;durP1;ratioP1;P1;durP2;ratioP2;P2;SDS_P1;SDS_P2;PMS_P1;PMS_P2;Temp;Humidity;BMP_temperature;BMP_pressure;BME280_temperature;BME280_humidity;BME280_pressure;Samples;Min_cycle;Max_cycle;Signal;HPM_P1;HPM_P2
2022/05/23 02:31:15;;;;;;;;;;;;;;;12.90;59.73;100218.03;4939241;29;1320;-95
2022/05/23 02:33:41;;;;;;;;;;;;;;;12.89;59.91;100213.72;4940985;29;1319;-96
2022/05/23 02:36:08;;;;;;;;;;;;;;;12.90;59.71;100217.22;4941138;29;1254;-95
2022/05/23 02:38:35;;;;;;;;;;;;;;;12.87;59.63;100205.00;4969782;28;1232;-95
2022/05/23 02:41:02;;;;;;;;;;;;;;;12.88;59.70;100216.63;4940742;29;1182;-96
2022/05/23 02:43:30;;;;;;;;;;;;;;;12.87;59.66;100215.81;4969331;28;1240;-95
2022/05/23 02:45:56;;;;;;;;;;;;;;;12.86;59.75;100202.56;4940562;29;1270;-96
2022/05/23 02:48:22;;;;;;;;;;;;;;;12.86;59.68;100206.09;4968770;28;1981;-95
2022/05/23 02:50:49;;;;;;;;;;;;;;;12.85;59.75;100203.63;4940520;29;1325;-96
2022/05/23 02:53:15;;;;;;;;;;;;;;;12.84;59.69;100196.56;4968709;28;1173;-95
2022/05/23 02:55:41;;;;;;;;;;;;;;;12.85;59.72;100204.47;4940821;29;1198;-95
2022/05/23 02:58:08;;;;;;;;;;;;;;;12.84;59.71;100204.69;4968271;28;1268;-95
2022/05/23 03:00:34;;;;;;;;;;;;;;;12.84;59.67;100199.28;4940611;29;1478;-96
2022/05/23 03:03:03;;;;;;;;;;;;;;;12.81;59.65;100192.47;4970289;28;1224;-96
2022/05/23 03:05:29;;;;;;;;;;;;;;;12.81;59.73;100194.38;4940657;29;1332;-95
2022/05/23 03:07:55;;;;;;;;;;;;;;;12.80;59.72;100198.13;4970392;28;1915;-96
2022/05/23 03:10:22;;;;;;;;;;;;;;;12.79;59.67;100189.19;4940525;29;1213;-96
2022/05/23 03:12:48;;;;;;;;;;;;;;;12.79;59.62;100188.38;4970899;28;1236;-95
2022/05/23 03:15:14;;;;;;;;;;;;;;;12.78;59.65;100182.16;4941843;29;1186;-95
2022/05/23 03:17:41;;;;;;;;;;;;;;;12.79;59.85;100188.38;4941474;29;1214;-95
2022/05/23 03:20:07;;;;;;;;;;;;;;;12.78;59.75;100192.16;4970406;28;1320;-96
2022/05/23 03:28:02;;;;;;;;;;;;;;;12.76;59.48;100188.84;4940466;29;1910;-96
2022/05/23 03:30:29;;;;;;;;;;;;;;;12.75;59.54;100185.34;4969400;28;1180;-96
2022/05/23 03:32:57;;;;;;;;;;;;;;;12.73;59.61;100182.91;4940290;29;1363;-95
2022/05/23 03:35:23;;;;;;;;;;;;;;;12.73;59.40;100188.31;4940303;29;1269;-95
2022/05/23 03:37:49;;;;;;;;;;;;;;;12.75;59.46;100189.94;4940058;29;1211;-95
2022/05/23 03:40:16;;;;;;;;;;;;;;;12.73;59.62;100191.00;4969975;28;1315;-95
2022/05/23 03:42:42;;;;;;;;;;;;;;;12.73;59.60;100180.19;4940060;29;1398;-96
2022/05/23 03:45:09;;;;;;;;;;;;;;;12.73;59.48;100187.47;4969923;28;1569;-95
2022/05/23 03:47:35;;;;;;;;;;;;;;;12.72;59.66;100186.66;4940055;29;1263;-96
2022/05/23 03:50:01;;;;;;;;;;;;;;;12.72;59.42;100185.81;4969902;28;1914;-96
2022/05/23 03:52:29;;;;;;;;;;;;;;;12.71;59.49;100184.19;4939838;29;1284;-95
2022/05/23 03:54:55;;;;;;;;;;;;;;;12.69;59.60;100181.72;4969067;28;1208;-96
2022/05/23 03:57:23;;;;;;;;;;;;;;;12.70;59.54;100186.06;4939767;29;1213;-95
2022/05/23 03:59:49;;;;;;;;;;;;;;;12.68;59.58;100188.19;4957360;29;1147;-96
2022/05/23 04:02:15;;;;;;;;;;;;;;;12.69;59.44;100180.91;4939968;29;1296;-96
2022/05/23 04:04:42;;;;;;;;;;;;;;;12.69;59.54;100189.03;4969064;28;1200;-96
2022/05/23 04:07:08;;;;;;;;;;;;;;;12.68;59.41;100193.59;4939845;29;1150;-95
2022/05/23 04:09:35;;;;;;;;;;;;;;;12.68;59.30;100185.50;4968706;28;1985;-96
2022/05/23 04:12:01;;;;;;;;;;;;;;;12.68;59.56;100192.78;4939709;29;1487;-96
2022/05/23 04:14:27;;;;;;;;;;;;;;;12.67;59.41;100189.25;4939922;28;1305;-95
2022/05/23 04:16:54;;;;;;;;;;;;;;;12.68;59.46;100193.59;4943205;29;1277;-95
2022/05/23 04:19:20;;;;;;;;;;;;;;;12.67;59.32;100194.66;4972407;28;1367;-95
2022/05/23 04:21:47;;;;;;;;;;;;;;;12.67;59.48;100191.13;4943058;29;1206;-95
2022/05/23 04:24:13;;;;;;;;;;;;;;;12.66;59.40;100187.63;4972583;28;1292;-95
2022/05/23 04:26:40;;;;;;;;;;;;;;;12.65;59.52;100190.56;4943488;29;1182;-96
2022/05/23 04:29:06;;;;;;;;;;;;;;;12.65;59.19;100185.16;4971770;28;1965;-95
2022/05/23 04:31:33;;;;;;;;;;;;;;;12.64;59.45;100187.03;4943103;29;1412;-95
2022/05/23 04:36:43;;;;;;;;;;;;;;;12.64;59.36;100178.09;4943387;29;1196;-95
2022/05/23 04:39:10;;;;;;;;;;;;;;;12.63;59.25;100173.78;4972205;28;1263;-96
2022/05/23 04:41:36;;;;;;;;;;;;;;;12.62;59.41;100180.25;4942949;29;1345;-96
2022/05/23 04:44:02;;;;;;;;;;;;;;;12.62;59.19;100172.16;4943219;29;1199;-96
2022/05/23 04:46:29;;;;;;;;;;;;;;;12.62;59.17;100169.44;4971672;28;1184;-95
2022/05/23 04:51:39;;;;;;;;;;;;;;;12.62;59.23;100172.16;4923456;29;1292;-96
2022/05/23 04:54:05;;;;;;;;;;;;;;;12.63;59.33;100165.66;4971473;28;1153;-95
2022/05/23 04:56:32;;;;;;;;;;;;;;;12.62;59.35;100166.75;4943071;29;1404;-96
2022/05/23 04:58:58;;;;;;;;;;;;;;;12.61;59.30;100165.91;4971524;28;1181;-96
2022/05/23 05:01:25;;;;;;;;;;;;;;;12.60;59.07;100166.97;4942922;29;1221;-96
2022/05/23 05:03:53;;;;;;;;;;;;;;;12.59;59.17;100168.03;4971239;28;1237;-96
2022/05/23 05:06:19;;;;;;;;;;;;;;;12.60;59.30;100158.06;4942840;29;1174;-96
2022/05/23 05:08:45;;;;;;;;;;;;;;;12.58;59.20;100158.28;4942712;29;1914;-96
2022/05/23 05:11:12;;;;;;;;;;;;;;;12.59;59.08;100159.09;4968325;28;1516;-96
2022/05/23 05:13:39;;;;;;;;;;;;;;;12.57;59.24;100159.34;4971456;28;1241;-95
2022/05/23 05:16:05;;;;;;;;;;;;;;;12.58;59.13;100152.88;4942585;29;1361;-95
2022/05/23 05:18:32;;;;;;;;;;;;;;;12.58;59.14;100169.09;4971358;28;1308;-96
2022/05/23 05:21:00;;;;;;;;;;;;;;;12.58;59.08;100157.47;4942511;29;1535;-95
2022/05/23 05:23:26;;;;;;;;;;;;;;;12.57;59.10;100158.53;4971109;28;1276;-95
2022/05/23 05:25:53;;;;;;;;;;;;;;;12.57;59.05;100162.06;4942285;28;1273;-95
2022/05/23 05:28:19;;;;;;;;;;;;;;;12.56;59.01;100163.13;4970974;28;1914;-96
2022/05/23 05:30:46;;;;;;;;;;;;;;;12.56;59.19;100156.88;4942378;29;1232;-95
2022/05/23 05:33:13;;;;;;;;;;;;;;;12.56;59.11;100162.28;4971151;28;1287;-96
2022/05/23 05:35:39;;;;;;;;;;;;;;;12.53;59.20;100158.22;4942363;29;1359;-96
2022/05/23 05:38:05;;;;;;;;;;;;;;;12.55;59.07;100152.56;4971286;28;1169;-95
2022/05/23 05:40:32;;;;;;;;;;;;;;;12.55;59.22;100155.25;4942684;29;1332;-96
2022/05/23 05:42:58;;;;;;;;;;;;;;;12.54;59.25;100154.44;4974042;28;1260;-96
2022/05/23 05:45:25;;;;;;;;;;;;;;;12.55;59.27;100155.25;4971326;28;1267;-95
2022/05/23 05:47:51;;;;;;;;;;;;;;;12.54;59.16;100159.03;4941973;29;1263;-95
2022/05/23 05:50:17;;;;;;;;;;;;;;;12.54;58.99;100151.75;4971185;28;1981;-95
2022/05/23 05:52:45;;;;;;;;;;;;;;;12.54;59.02;100159.84;4941627;29;1194;-95
2022/05/23 05:55:12;;;;;;;;;;;;;;;12.53;59.22;100155.50;4941699;29;1206;-96
2022/05/23 05:57:38;;;;;;;;;;;;;;;12.53;58.98;100152.81;4970798;28;1375;-96
2022/05/23 06:00:04;;;;;;;;;;;;;;;12.54;58.98;100148.22;4941884;29;1299;-95
2022/05/23 06:02:31;;;;;;;;;;;;;;;12.53;59.17;100147.41;4970919;28;1166;-96
2022/05/23 06:04:57;;;;;;;;;;;;;;;12.53;59.05;100144.72;4941406;29;1222;-96
2022/05/23 06:12:51;;;;;;;;;;;;;;;12.52;59.06;100143.03;4941513;29;1292;-95
2022/05/23 06:15:18;;;;;;;;;;;;;;;12.52;59.09;100145.75;4970640;28;1221;-95
2022/05/23 06:17:44;;;;;;;;;;;;;;;12.52;58.91;100148.44;4941503;29;1174;-95
2022/05/23 06:20:10;;;;;;;;;;;;;;;12.52;59.11;100143.03;4970723;28;1197;-95
2022/05/23 06:22:37;;;;;;;;;;;;;;;12.52;58.92;100144.94;4940931;29;1270;-96
2022/05/23 06:25:03;;;;;;;;;;;;;;;12.53;58.88;100142.00;4970665;28;1334;-95
2022/05/23 06:27:29;;;;;;;;;;;;;;;12.52;59.01;100136.84;4941179;29;1338;-96
2022/05/23 06:29:56;;;;;;;;;;;;;;;12.52;58.85;100143.03;4970049;28;1915;-95
2022/05/23 06:32:24;;;;;;;;;;;;;;;12.51;59.01;100141.41;4941393;29;1500;-95
2022/05/23 06:34:50;;;;;;;;;;;;;;;12.53;58.91;100143.88;4970034;28;1186;-95
2022/05/23 06:37:17;;;;;;;;;;;;;;;12.53;58.93;100157.38;4941380;28;1174;-95
2022/05/23 06:39:43;;;;;;;;;;;;;;;12.52;58.90;100151.16;4969166;28;1228;-96
2022/05/23 06:42:09;;;;;;;;;;;;;;;12.53;59.02;100146.56;4940823;29;1312;-96
2022/05/23 06:44:36;;;;;;;;;;;;;;;12.52;58.85;100159.25;4969845;28;1189;-96
2022/05/23 06:47:02;;;;;;;;;;;;;;;12.52;58.88;100156.56;4940897;29;1206;-96
2022/05/23 06:49:28;;;;;;;;;;;;;;;12.54;58.86;100164.44;4969484;28;1977;-95
2022/05/23 06:51:55;;;;;;;;;;;;;;;12.51;58.86;100157.63;4940652;29;1301;-96
2022/05/23 06:54:21;;;;;;;;;;;;;;;12.53;58.98;100158.22;4972333;28;1185;-95
2022/05/23 06:56:48;;;;;;;;;;;;;;;12.52;58.80;100156.56;4943603;29;1194;-95
2022/05/23 06:59:15;;;;;;;;;;;;;;;12.52;58.82;100153.84;4969895;28;1208;-96
2022/05/23 07:01:42;;;;;;;;;;;;;;;12.52;58.84;100159.25;4942025;29;1150;-96
2022/05/23 07:04:08;;;;;;;;;;;;;;;12.52;58.86;100156.56;4969571;28;1201;-96
2022/05/23 07:12:23;;;;;;;;;;;;;;;12.54;58.86;100145.53;4970940;28;1283;-96
2022/05/23 07:14:49;;;;;;;;;;;;;;;12.56;59.01;100146.06;4940678;29;1257;-95
2022/05/23 07:17:16;;;;;;;;;;;;;;;12.54;58.80;100140.94;4968599;28;1228;-95
2022/05/23 07:19:43;;;;;;;;;;;;;;;12.54;58.96;100140.94;4940688;29;1261;-95
2022/05/23 07:22:09;;;;;;;;;;;;;;;12.55;59.05;100144.44;4968400;28;1232;-95
2022/05/23 07:24:35;;;;;;;;;;;;;;;12.54;58.96;100140.13;4940667;29;1273;-95
2022/05/23 07:27:02;;;;;;;;;;;;;;;12.55;58.92;100139.84;4968462;28;1197;-95
2022/05/23 07:29:28;;;;;;;;;;;;;;;12.56;58.85;100148.78;4940177;29;1911;-95
2022/05/23 07:31:55;;;;;;;;;;;;;;;12.56;58.89;100132.56;4967937;28;1198;-96
2022/05/23 07:34:22;;;;;;;;;;;;;;;12.57;59.05;100143.16;4940467;29;1465;-95
2022/05/23 07:36:48;;;;;;;;;;;;;;;12.56;59.14;100138.81;4967857;28;1210;-95
2022/05/23 07:39:15;;;;;;;;;;;;;;;12.56;59.13;100129.88;4940466;29;1265;-95
2022/05/23 07:41:41;;;;;;;;;;;;;;;12.56;59.11;100130.72;4967841;28;1169;-95
2022/05/23 07:44:08;;;;;;;;;;;;;;;12.56;59.00;100124.47;4940488;29;1194;-95
2022/05/23 07:46:35;;;;;;;;;;;;;;;12.56;59.03;100136.13;4967752;28;1405;-96
2022/05/23 07:49:01;;;;;;;;;;;;;;;12.56;59.18;100136.13;4940177;28;1903;-95
2022/05/23 07:51:29;;;;;;;;;;;;;;;12.57;59.17;100140.44;4970183;28;1400;-95
2022/05/23 08:02:08;;;;;;;;;;;;;;;12.56;59.04;100133.41;4970995;28;1267;-96
2022/05/23 08:04:34;;;;;;;;;;;;;;;12.58;59.16;100141.25;4944022;29;1233;-95
2022/05/23 08:07:01;;;;;;;;;;;;;;;12.58;59.17;100135.84;4967001;28;1529;-95
2022/05/23 08:09:27;;;;;;;;;;;;;;;12.57;58.94;100134.22;4971559;28;1988;-95
2022/05/23 08:11:53;;;;;;;;;;;;;;;12.58;58.93;100149.38;4943331;29;1182;-95
2022/05/23 08:14:20;;;;;;;;;;;;;;;12.58;59.26;100135.84;4971050;28;1290;-95
2022/05/23 08:16:47;;;;;;;;;;;;;;;12.57;59.12;100132.34;4943504;29;1316;-95
2022/05/23 08:19:13;;;;;;;;;;;;;;;12.57;59.20;100132.34;4963235;28;1255;-95
2022/05/23 08:21:39;;;;;;;;;;;;;;;12.58;59.10;100125.88;4943340;29;1310;-95
2022/05/23 08:24:06;;;;;;;;;;;;;;;12.58;59.05;100125.88;4970937;28;1245;-96
2022/05/23 08:26:33;;;;;;;;;;;;;;;12.58;59.18;100122.34;4943085;29;1352;-95
2022/05/23 08:28:59;;;;;;;;;;;;;;;12.59;59.34;100123.97;4943130;29;1891;-95
2022/05/23 08:31:26;;;;;;;;;;;;;;;12.43;59.26;100093.19;4943016;29;1261;-95
2022/05/23 08:33:52;;;;;;;;;;;;;;;12.58;59.30;100106.13;4943468;29;1348;-95
2022/05/23 08:36:18;;;;;;;;;;;;;;;12.58;59.05;100115.06;4942910;29;1330;-95
2022/05/23 08:38:45;;;;;;;;;;;;;;;12.59;59.06;100111.31;4943213;29;1182;-95
2022/05/23 08:41:11;;;;;;;;;;;;;;;12.59;59.20;100105.06;4970325;28;1272;-95
2022/05/23 08:43:38;;;;;;;;;;;;;;;12.59;59.18;100105.91;4943132;29;1245;-95
2022/05/23 08:46:04;;;;;;;;;;;;;;;12.59;59.22;100099.66;4970382;28;1287;-95
2022/05/23 08:48:30;;;;;;;;;;;;;;;12.58;59.01;100101.56;4943100;29;1253;-95
2022/05/23 08:50:59;;;;;;;;;;;;;;;12.61;59.07;100102.94;4970263;28;1898;-94
2022/05/23 08:53:26;;;;;;;;;;;;;;;12.60;59.07;100093.22;4942903;29;1350;-95
2022/05/23 08:55:52;;;;;;;;;;;;;;;12.61;59.27;100089.44;4969840;28;1233;-95
2022/05/23 08:58:18;;;;;;;;;;;;;;;12.60;59.10;100083.22;4942673;29;1303;-96
2022/05/23 09:00:45;;;;;;;;;;;;;;;12.62;59.04;100083.00;4969453;28;1276;-95
2022/05/23 09:03:12;;;;;;;;;;;;;;;12.61;59.09;100086.75;4942885;29;1167;-95
2022/05/23 09:05:38;;;;;;;;;;;;;;;12.61;59.26;100082.16;4938020;29;1498;-94
2022/05/23 09:08:05;;;;;;;;;;;;;;;12.62;59.13;100088.41;4942780;29;1346;-95
2022/05/23 09:10:31;;;;;;;;;;;;;;;12.62;59.14;100093.81;4969848;28;1910;-95
2022/05/23 09:12:57;;;;;;;;;;;;;;;12.62;59.07;100083.81;4942395;29;1206;-96
2022/05/23 09:15:24;;;;;;;;;;;;;;;12.62;59.12;100094.63;4970315;28;1265;-95
2022/05/23 09:17:51;;;;;;;;;;;;;;;12.63;59.10;100096.25;4942704;29;1197;-95
2022/05/23 09:20:17;;;;;;;;;;;;;;;12.64;59.31;100095.16;4970101;28;1245;-95
2022/05/23 09:22:47;;;;;;;;;;;;;;;12.63;59.44;100090.03;4942263;29;1159;-95
2022/05/23 09:25:13;;;;;;;;;;;;;;;12.64;59.41;100095.16;4971659;28;1326;-95
2022/05/23 09:27:40;;;;;;;;;;;;;;;12.64;59.37;100097.06;4942062;29;1303;-95
2022/05/23 09:30:06;;;;;;;;;;;;;;;12.64;59.42;100094.34;4971225;28;1962;-94
2022/05/23 09:32:33;;;;;;;;;;;;;;;12.64;59.26;100089.78;4941972;29;1242;-95
2022/05/23 09:34:59;;;;;;;;;;;;;;;12.65;59.21;100090.63;4941944;29;1208;-96
2022/05/23 09:37:25;;;;;;;;;;;;;;;12.64;59.33;100078.97;4942394;29;1301;-95
2022/05/23 09:39:52;;;;;;;;;;;;;;;12.65;59.34;100079.81;4971320;28;1170;-96
2022/05/23 09:47:46;;;;;;;;;;;;;;;12.65;59.55;100080.63;4941942;29;1200;-95
2022/05/23 09:50:13;;;;;;;;;;;;;;;12.66;59.52;100065.22;4973998;28;1914;-95
2022/05/23 09:52:42;;;;;;;;;;;;;;;12.67;59.50;100077.66;4941433;29;1190;-95
2022/05/23 09:55:08;;;;;;;;;;;;;;;12.66;59.46;100068.75;4973467;28;1334;-95
2022/05/23 09:57:34;;;;;;;;;;;;;;;12.67;59.36;100069.56;4942190;29;1166;-95
2022/05/23 10:00:01;;;;;;;;;;;;;;;12.68;59.40;100074.72;4973364;28;1165;-95
2022/05/23 10:02:27;;;;;;;;;;;;;;;12.67;59.65;100062.25;4941600;29;1167;-95
2022/05/23 10:04:54;;;;;;;;;;;;;;;12.68;59.42;100061.22;4945515;28;1399;-95
2022/05/23 10:07:20;;;;;;;;;;;;;;;12.69;59.57;100062.03;4973052;28;1264;-95
2022/05/23 10:09:46;;;;;;;;;;;;;;;12.69;59.62;100057.44;4941795;29;1906;-95
2022/05/23 10:12:14;;;;;;;;;;;;;;;12.70;59.37;100058.25;4973104;28;1185;-95
2022/05/23 10:14:41;;;;;;;;;;;;;;;12.70;59.39;100056.38;4972725;28;1338;-96
2022/05/23 10:17:08;;;;;;;;;;;;;;;12.69;59.63;100054.75;4941812;29;1256;-95
2022/05/23 10:19:35;;;;;;;;;;;;;;;12.70;59.72;100053.66;4972975;28;1299;-95
2022/05/23 10:22:01;;;;;;;;;;;;;;;12.72;59.54;100056.94;4941311;29;1218;-96
2022/05/23 10:24:28;;;;;;;;;;;;;;;12.71;59.71;100055.31;4973034;28;1292;-95
2022/05/23 10:26:54;;;;;;;;;;;;;;;12.72;59.54;100056.94;4942216;29;1161;-95
2022/05/23 10:29:21;;;;;;;;;;;;;;;12.73;59.79;100058.59;4972756;28;1964;-95
2022/05/23 10:31:47;;;;;;;;;;;;;;;12.73;59.62;100050.50;4940698;29;1177;-95
2022/05/23 10:34:13;;;;;;;;;;;;;;;12.75;59.68;100046.72;4973147;28;1212;-95
2022/05/23 10:36:40;;;;;;;;;;;;;;;12.74;59.76;100035.09;4941838;29;1158;-95
2022/05/23 10:44:32;;;;;;;;;;;;;;;12.76;59.76;100035.66;4971031;28;1250;-96
2022/05/23 10:46:59;;;;;;;;;;;;;;;12.75;59.72;100034.03;4941259;29;1179;-95
2022/05/23 10:49:26;;;;;;;;;;;;;;;12.77;59.82;100029.19;4973004;28;1991;-96
2022/05/23 10:51:52;;;;;;;;;;;;;;;12.77;59.77;100034.59;4940385;29;1337;-96
2022/05/23 10:54:18;;;;;;;;;;;;;;;12.77;59.88;100033.78;4972813;28;1268;-95
2022/05/23 10:56:45;;;;;;;;;;;;;;;12.79;59.89;100037.03;4940995;29;1336;-96
2022/05/23 10:59:12;;;;;;;;;;;;;;;12.80;59.88;100027.91;4972803;28;1185;-95
2022/05/23 11:01:38;;;;;;;;;;;;;;;12.80;59.93;100031.41;4940312;29;1352;-95
2022/05/23 11:04:05;;;;;;;;;;;;;;;12.81;59.76;100033.03;4940845;29;1387;-95
2022/05/23 11:06:31;;;;;;;;;;;;;;;12.81;59.93;100032.22;4972660;28;1270;-95
2022/05/23 11:08:58;;;;;;;;;;;;;;;12.83;59.73;100032.81;4940637;29;1294;-96
2022/05/23 11:11:24;;;;;;;;;;;;;;;12.82;59.95;100018.44;4972295;28;1910;-96
2022/05/23 11:13:51;;;;;;;;;;;;;;;12.84;59.78;100026.31;4940325;29;1257;-95
2022/05/23 11:16:18;;;;;;;;;;;;;;;12.84;60.07;100023.63;4972354;28;1327;-96
2022/05/23 11:18:45;;;;;;;;;;;;;;;12.84;60.06;100031.72;4940426;29;1257;-96
2022/05/23 11:21:11;;;;;;;;;;;;;;;12.85;60.14;100026.09;4972219;28;1181;-95
2022/05/23 11:23:38;;;;;;;;;;;;;;;12.86;60.02;100022.31;4940334;28;1275;-96
2022/05/23 11:26:04;;;;;;;;;;;;;;;12.87;60.08;100025.81;4972237;28;1455;-96
2022/05/23 11:33:58;;;;;;;;;;;;;;;12.88;60.41;100016.63;4940395;29;1359;-96
2022/05/23 11:36:33;;;;;;;;;;;;;;;12.89;60.17;100013.72;4972358;28;1232;-95
2022/05/23 11:38:59;;;;;;;;;;;;;;;12.90;60.15;100014.53;4940004;29;1225;-95
2022/05/23 11:41:26;;;;;;;;;;;;;;;12.90;60.12;100009.94;4971810;28;1247;-95
2022/05/23 11:43:52;;;;;;;;;;;;;;;12.91;60.12;100000.78;4940480;29;1181;-96
2022/05/23 11:46:18;;;;;;;;;;;;;;;12.93;60.25;100008.63;4971887;28;1309;-95
2022/05/23 11:48:45;;;;;;;;;;;;;;;12.93;60.25;100009.44;4940176;29;1268;-95
2022/05/23 11:51:11;;;;;;;;;;;;;;;12.95;60.28;99995.69;4971710;28;1907;-95
2022/05/23 11:53:39;;;;;;;;;;;;;;;12.95;60.33;99996.50;4940003;29;1149;-95
2022/05/23 11:56:06;;;;;;;;;;;;;;;12.97;60.34;100004.38;4972083;28;1169;-96
2022/05/23 11:58:32;;;;;;;;;;;;;;;12.98;60.33;99992.47;4972079;28;1349;-95
2022/05/23 12:00:59;;;;;;;;;;;;;;;12.99;60.44;99990.59;4938448;29;1450;-95
2022/05/23 12:03:25;;;;;;;;;;;;;;;13.00;60.46;99994.91;4939676;29;1468;-95
2022/05/23 12:05:52;;;;;;;;;;;;;;;12.99;60.27;99986.00;4971776;28;1257;-95
2022/05/23 12:08:18;;;;;;;;;;;;;;;13.00;60.46;99986.81;4939993;29;1350;-95
2022/05/23 12:10:46;;;;;;;;;;;;;;;13.02;60.60;99990.09;4971741;28;1930;-95
2022/05/23 12:13:13;;;;;;;;;;;;;;;13.03;60.50;99989.00;4939466;29;1340;-96
2022/05/23 12:15:39;;;;;;;;;;;;;;;13.04;60.57;99977.97;4972853;28;1179;-96
2022/05/23 12:18:05;;;;;;;;;;;;;;;13.05;60.50;99981.47;4939932;29;1179;-96
2022/05/23 12:20:32;;;;;;;;;;;;;;;13.06;60.71;99978.53;4971922;28;1338;-96
2022/05/23 12:22:58;;;;;;;;;;;;;;;13.07;60.58;99982.06;4939646;29;1227;-95
2022/05/23 12:25:25;;;;;;;;;;;;;;;13.07;60.79;99974.75;4972171;28;1383;-96
2022/05/23 12:27:51;;;;;;;;;;;;;;;13.09;60.79;99978.03;4939825;29;1322;-96
2022/05/23 12:30:17;;;;;;;;;;;;;;;13.09;60.81;99978.03;4939385;29;1907;-96
2022/05/23 12:32:44;;;;;;;;;;;;;;;13.11;60.90;99972.38;4940108;29;1191;-96
2022/05/23 12:35:13;;;;;;;;;;;;;;;13.10;60.75;99968.84;4972274;28;1169;-96
2022/05/23 12:37:39;;;;;;;;;;;;;;;13.11;60.76;99966.97;4942754;29;1359;-96
2022/05/23 12:40:06;;;;;;;;;;;;;;;13.13;60.84;99971.06;4976185;28;1260;-96
2022/05/23 12:42:33;;;;;;;;;;;;;;;13.14;60.86;99978.09;4943117;29;1349;-96
2022/05/23 12:44:59;;;;;;;;;;;;;;;13.15;60.95;99978.94;4975300;28;1352;-95
2022/05/23 12:47:25;;;;;;;;;;;;;;;13.17;60.98;99979.47;4943447;29;1275;-96
2022/05/23 12:49:52;;;;;;;;;;;;;;;13.17;60.90;99977.59;4975140;28;1294;-96
2022/05/23 12:52:18;;;;;;;;;;;;;;;13.18;60.93;99967.63;4942927;29;1918;-96
2022/05/23 12:54:45;;;;;;;;;;;;;;;13.17;61.13;99966.78;4975163;28;1299;-96
2022/05/23 12:57:12;;;;;;;;;;;;;;;13.19;60.94;99967.34;4942930;29;1191;-96
2022/05/23 12:59:38;;;;;;;;;;;;;;;13.22;61.05;99971.44;4962838;28;1442;-96
2022/05/23 13:02:05;;;;;;;;;;;;;;;13.23;61.01;99964.13;4942655;29;1210;-96
2022/05/23 13:04:33;;;;;;;;;;;;;;;13.24;61.17;99965.78;4942613;29;1180;-96
2022/05/23 13:06:59;;;;;;;;;;;;;;;13.24;61.08;99968.50;4943016;29;1197;-96
2022/05/23 13:09:26;;;;;;;;;;;;;;;13.27;61.21;99962.63;4974754;28;1169;-96
2022/05/23 13:11:52;;;;;;;;;;;;;;;13.27;61.21;99966.13;4942815;29;1982;-96
2022/05/23 13:14:18;;;;;;;;;;;;;;;13.28;61.09;99956.13;4942542;29;1307;-96
2022/05/23 13:16:45;;;;;;;;;;;;;;;13.29;61.24;99953.16;4975389;28;1194;-96
2022/05/23 13:22:10;;;;;;;;;;;;;;;13.31;61.37;99945.63;4923693;29;1222;-96
2022/05/23 13:24:54;;;;;;;;;;;;;;;13.32;61.37;99946.44;4923257;29;1247;-96
2022/05/23 13:27:20;;;;;;;;;;;;;;;13.33;61.28;99943.50;4924756;29;1212;-96
2022/05/23 13:29:46;;;;;;;;;;;;;;;13.34;61.21;99941.59;4942724;29;1268;-96
2022/05/23 13:32:13;;;;;;;;;;;;;;;13.36;61.39;99944.88;4974445;28;1993;-96
2022/05/23 13:34:39;;;;;;;;;;;;;;;13.38;61.40;99948.97;4941912;29;1227;-95
2022/05/23 13:37:06;;;;;;;;;;;;;;;13.40;61.51;99946.00;4974311;28;1261;-96
2022/05/23 13:39:32;;;;;;;;;;;;;;;13.40;61.52;99946.81;4942209;29;1169;-96
2022/05/23 13:41:59;;;;;;;;;;;;;;;13.40;61.70;99943.28;4974196;28;1196;-96
2022/05/23 13:44:25;;;;;;;;;;;;;;;13.43;61.76;99950.09;4942241;29;1239;-96
2022/05/23 13:46:51;;;;;;;;;;;;;;;13.42;61.69;99949.28;4973949;28;1203;-96
2022/05/23 13:49:18;;;;;;;;;;;;;;;13.44;61.55;99940.88;4942312;29;1216;-96
2022/05/23 13:51:44;;;;;;;;;;;;;;;13.45;61.60;99939.84;4973875;28;1907;-96
2022/05/23 13:54:12;;;;;;;;;;;;;;;13.45;61.61;99942.53;4942195;29;1264;-96
2022/05/23 13:56:38;;;;;;;;;;;;;;;13.47;61.75;99943.09;4974224;28;1181;-95
2022/05/23 13:59:05;;;;;;;;;;;;;;;13.47;61.59;99924.16;4940165;29;1346;-96
2022/05/23 14:01:31;;;;;;;;;;;;;;;13.49;61.74;99938.25;4941785;29;1238;-96
2022/05/23 14:03:58;;;;;;;;;;;;;;;13.50;61.83;99931.75;4973976;28;1205;-96
2022/05/23 14:06:24;;;;;;;;;;;;;;;13.51;61.77;99928.00;4941849;29;1392;-96
2022/05/23 14:08:52;;;;;;;;;;;;;;;13.52;61.95;99926.91;4973589;28;1317;-96
2022/05/23 14:11:18;;;;;;;;;;;;;;;13.54;61.73;99927.50;4940944;29;1911;-95
2022/05/23 14:13:45;;;;;;;;;;;;;;;13.53;61.88;99918.56;4974559;28;1226;-96
2022/05/23 14:16:12;;;;;;;;;;;;;;;13.56;61.82;99917.22;4944360;29;1231;-96
2022/05/23 14:18:39;;;;;;;;;;;;;;;13.56;61.79;99909.09;4976179;28;1279;-96
2022/05/23 14:21:06;;;;;;;;;;;;;;;13.55;61.96;99911.00;4942109;29;1198;-96
2022/05/23 14:23:33;;;;;;;;;;;;;;;13.56;61.88;99909.94;4974196;28;1257;-96
2022/05/23 14:25:59;;;;;;;;;;;;;;;13.57;62.04;99908.03;4941471;29;1256;-96
2022/05/23 14:28:26;;;;;;;;;;;;;;;13.59;61.67;99905.91;4973452;28;1196;-96
2022/05/23 14:30:52;;;;;;;;;;;;;;;13.60;62.04;99894.00;4941189;29;1965;-96
2022/05/23 14:33:19;;;;;;;;;;;;;;;13.59;61.81;99901.31;4973209;28;1215;-96
2022/05/23 14:35:45;;;;;;;;;;;;;;;13.61;61.97;99890.22;4941247;29;1277;-96
2022/05/23 14:38:12;;;;;;;;;;;;;;;13.62;61.80;99897.28;4973762;28;1185;-96
2022/05/23 14:40:38;;;;;;;;;;;;;;;13.63;61.76;99886.19;4941650;29;1197;-95
2022/05/23 14:43:05;;;;;;;;;;;;;;;13.66;61.58;99884.03;4973135;28;1178;-96
2022/05/23 14:45:31;;;;;;;;;;;;;;;13.66;61.73;99890.28;4940870;29;1325;-96
2022/05/23 14:47:58;;;;;;;;;;;;;;;13.68;61.86;99890.84;4973497;28;1296;-96
2022/05/23 14:50:24;;;;;;;;;;;;;;;13.69;61.74;99878.94;4941496;29;1325;-96
2022/05/23 14:55:18;;;;;;;;;;;;;;;13.70;61.79;99885.16;4973457;28;1919;-96
2022/05/23 14:55:36;;;;;;;;;;;;;;;13.71;61.86;99876.78;4940778;29;1306;-96
2022/05/23 15:00:48;;;;;;;;;;;;;;;13.71;61.91;99882.22;4922405;29;1349;-96
2022/05/23 15:03:15;;;;;;;;;;;;;;;13.71;61.69;99879.50;4940659;29;1246;-96
2022/05/23 15:05:42;;;;;;;;;;;;;;;13.73;61.79;99888.16;4973567;28;1438;-96
2022/05/23 15:08:08;;;;;;;;;;;;;;;13.75;61.65;99879.78;4941095;29;1262;-96
2022/05/23 15:10:34;;;;;;;;;;;;;;;13.76;61.78;99867.88;4973030;28;1995;-96
2022/05/23 15:13:01;;;;;;;;;;;;;;;13.76;61.99;99881.41;4941143;29;1271;-96
2022/05/23 15:15:27;;;;;;;;;;;;;;;13.77;61.81;99881.19;4941544;29;1248;-96
2022/05/23 15:17:54;;;;;;;;;;;;;;;13.79;61.76;99879.00;4973380;28;1314;-96
2022/05/23 15:20:22;;;;;;;;;;;;;;;13.80;61.88;99885.25;4940770;29;1337;-96
2022/05/23 15:22:48;;;;;;;;;;;;;;;13.80;61.89;99885.25;4973117;28;1179;-96
2022/05/23 15:25:14;;;;;;;;;;;;;;;13.81;61.59;99893.09;4940859;29;1198;-96
2022/05/23 15:27:41;;;;;;;;;;;;;;;13.82;61.69;99893.94;4941638;29;1343;-96
2022/05/23 15:30:08;;;;;;;;;;;;;;;13.83;61.64;99882.84;4973198;28;1317;-96
2022/05/23 15:32:34;;;;;;;;;;;;;;;13.84;61.74;99886.38;4940670;29;1918;-96
2022/05/23 15:35:00;;;;;;;;;;;;;;;13.84;61.84;99887.19;4973288;28;1284;-96
2022/05/23 15:37:27;;;;;;;;;;;;;;;13.85;61.75;99890.69;4941453;29;1127;-96
2022/05/23 15:39:53;;;;;;;;;;;;;;;13.85;61.93;99888.84;4973009;28;1165;-96
2022/05/23 15:42:20;;;;;;;;;;;;;;;13.86;61.71;99884.22;4973144;28;1185;-96
2022/05/23 15:44:46;;;;;;;;;;;;;;;13.86;61.99;99882.34;4941726;29;1236;-96
2022/05/23 15:47:12;;;;;;;;;;;;;;;13.88;61.95;99884.78;4972734;28;1248;-96
2022/05/23 15:49:39;;;;;;;;;;;;;;;13.88;62.04;99878.56;4940761;29;1307;-96
2022/05/23 15:52:05;;;;;;;;;;;;;;;13.86;62.34;99879.63;4972175;28;1910;-96
2022/05/23 15:54:32;;;;;;;;;;;;;;;13.88;62.09;99881.25;4939869;29;1415;-96
2022/05/23 15:56:58;;;;;;;;;;;;;;;13.89;62.27;99881.00;4940762;29;1218;-96
2022/05/23 15:59:25;;;;;;;;;;;;;;;13.88;62.25;99879.34;4940659;29;1331;-96
2022/05/23 16:01:51;;;;;;;;;;;;;;;13.89;62.29;99875.59;4971878;28;1248;-96
2022/05/23 16:04:17;;;;;;;;;;;;;;;13.90;62.27;99871.81;4940321;29;1262;-96
2022/05/23 16:06:44;;;;;;;;;;;;;;;13.91;62.25;99875.31;4972286;28;1157;-96
2022/05/23 16:09:10;;;;;;;;;;;;;;;13.91;62.35;99870.72;4940604;29;1583;-96